CST,Max TemperatureF,Mean TemperatureF,Min TemperatureF,Max Dew PointF,MeanDew PointF,Min DewpointF,Max Humidity, Mean Humidity, Min Humidity, Max Sea Level PressureIn, Mean Sea Level PressureIn, Min Sea Level PressureIn, Max VisibilityMiles, Mean VisibilityMiles, Min VisibilityMiles, Max Wind SpeedMPH, Mean Wind SpeedMPH, Max Gust SpeedMPH,PrecipitationIn, CloudCover, Events, WindDirDegrees
2012-11-1,88,80,71,75,73,71,94,73,53,29.94,29.88,29.82,9,7,6,17,8,,0.00,5,,334
2012-11-2,82,76,71,75,73,70,94,85,73,29.94,29.87,29.81,9,7,6,8,5,,0.08,6,Rain,301
2012-11-3,82,76,70,75,73,70,95,86,73,29.94,29.88,29.83,9,7,6,9,5,,0.01,6,Rain,309
2012-11-4,86,80,73,77,74,72,100,84,69,29.94,29.87,29.79,9,7,6,7,3,,0.02,5,Rain-Thunderstorm,220
2012-11-5,87,79,71,77,74,70,89,74,58,29.90,29.84,29.79,9,7,6,9,5,,0.00,6,,356
2012-11-6,87,79,71,77,74,69,94,74,56,29.90,29.84,29.79,9,7,6,15,7,,0.00,5,Thunderstorm,21
2012-11-7,87,80,73,75,73,72,94,76,52,29.92,29.87,29.81,9,7,6,13,5,,0.00,5,,343
2012-11-8,87,80,72,75,73,72,94,82,56,29.96,29.90,29.84,9,6,1,13,6,,0.47,6,Rain,333
2012-11-9,75,74,72,73,72,71,95,90,83,29.95,29.87,29.80,9,6,3,12,7,,0.16,6,Rain,299
2012-11-10,86,78,71,75,73,70,94,75,58,29.93,29.87,29.81,9,7,6,18,7,,0.00,5,Rain,327
2012-11-11,84,78,71,77,73,71,100,89,83,29.94,29.86,29.79,9,7,4,15,3,,0.08,6,Rain,236
2012-11-12,84,78,72,75,73,72,89,80,69,29.93,29.87,29.81,9,7,6,10,6,,0.00,5,Rain,22
2012-11-13,86,80,73,75,74,72,94,82,73,29.95,29.87,29.80,9,6,3,15,6,,0.16,6,Rain,317
2012-11-14,78,76,73,75,73,72,100,93,83,29.97,29.91,29.86,9,6,1,17,9,,0.59,7,Rain,285
2012-11-15,86,78,71,72,71,69,88,72,59,29.96,29.90,29.85,9,7,6,12,8,,0.00,6,,319
2012-11-16,84,77,70,73,69,64,89,72,53,29.93,29.87,29.82,9,7,6,13,8,,0.04,6,Rain,311
2012-11-17,81,76,72,75,73,71,94,86,79,29.95,29.92,29.88,9,6,1,14,9,,0.79,7,Rain,312
2012-11-18,74,72,69,72,69,67,94,88,80,30.03,29.96,29.92,9,5,2,12,9,,0.79,6,Rain,287
2012-11-19,77,74,71,72,70,68,100,89,67,29.98,29.91,29.85,9,6,4,13,9,,0.43,6,Rain,290
2012-11-20,80,76,72,73,72,72,94,83,72,29.98,29.87,29.80,9,7,5,12,9,,0.20,5,Rain,307
2012-11-21,80,76,73,75,73,72,94,84,76,29.94,29.90,29.86,9,7,6,9,8,,0.02,5,Rain,328
2012-11-22,78,74,71,72,70,69,94,83,70,29.98,29.93,29.86,9,6,5,14,7,,0.00,6,Rain,307
2012-11-23,77,74,71,72,71,70,94,88,83,29.99,29.95,29.90,9,6,4,8,6,,0.08,5,Rain,267
2012-11-24,77,74,71,71,65,63,97,72,59,30.01,29.96,29.90,9,7,6,14,12,,0.00,7,Rain,306
2012-11-25,75,72,69,70,69,68,94,85,78,29.99,29.94,29.86,9,6,6,10,9,,0.16,6,Rain,288
2012-11-26,84,80,77,75,75,73,89,76,70,29.95,29.89,29.83,9,7,6,7,5,,0.00,4,Rain,315
2012-11-27,84,78,71,77,75,72,89,79,69,29.95,29.90,29.85,9,7,6,13,5,,0.00,6,,353
2012-11-28,86,80,74,79,76,73,100,87,69,29.99,29.92,29.86,9,6,2,12,5,,0.08,6,Rain-Thunderstorm,210
2012-11-29,78,76,73,75,73,72,94,90,83,29.99,29.94,29.89,9,6,5,7,4,,0.00,5,Rain,255
2012-11-30,82,77,72,75,74,72,94,84,72,29.98,29.92,29.86,9,7,6,9,4,,0.00,7,,333